Time;durP1;ratioP1;P1;durP2;ratioP2;P2;SDS_P1;SDS_P2;PMS_P1;PMS_P2;Temp;Humidity;BMP_temperature;BMP_pressure;BME280_temperature;BME280_humidity;BME280_pressure;Samples;Min_cycle;Max_cycle;Signal;HPM_P1;HPM_P2
2021/11/20 00:02:29;;;;;;;1.75;1.05;;;21.20;70.50;;;;;;6163088;23;20051;-72
2021/11/20 00:04:55;;;;;;;2.50;1.00;;;21.20;70.50;;;;;;6187954;23;20009;-72
2021/11/20 00:07:21;;;;;;;2.35;1.00;;;21.20;70.50;;;;;;6187853;23;20063;-72
2021/11/20 00:09:47;;;;;;;1.25;1.10;;;21.20;70.50;;;;;;6138660;23;20421;-73
2021/11/20 00:12:22;;;;;;;2.90;1.20;;;21.20;70.50;;;;;;6187449;23;20001;-73
2021/11/20 00:14:48;;;;;;;1.40;1.25;;;21.20;70.50;;;;;;6163431;23;20008;-73
2021/11/20 00:17:14;;;;;;;2.22;1.40;;;21.20;70.50;;;;;;6188004;23;20000;-73
2021/11/20 00:19:40;;;;;;;1.60;0.93;;;21.20;70.60;;;;;;6189032;23;19997;-73
2021/11/20 00:22:11;;;;;;;4.80;1.73;;;21.20;70.60;;;;;;6189827;23;20000;-73
2021/11/20 00:24:40;;;;;;;1.25;1.00;;;21.20;70.50;;;;;;6164910;23;20096;-73
2021/11/20 00:27:08;;;;;;;1.40;1.10;;;21.20;70.60;;;;;;6189833;23;20055;-73
2021/11/20 00:29:45;;;;;;;2.22;1.10;;;21.30;70.60;;;;;;6164929;23;20001;-72
2021/11/20 00:32:14;;;;;;;2.10;0.80;;;21.20;70.60;;;;;;6215739;23;20024;-72
2021/11/20 00:34:41;;;;;;;7.50;1.10;;;21.30;70.60;;;;;;6215933;23;20031;-72
2021/11/20 00:37:06;;;;;;;3.72;1.15;;;21.30;70.60;;;;;;6188399;23;20003;-73
2021/11/20 00:39:33;;;;;;;2.65;1.05;;;21.30;70.60;;;;;;6215403;23;20004;-73
2021/11/20 00:41:59;;;;;;;1.83;1.05;;;21.30;70.60;;;;;;6164643;23;20336;-72
2021/11/20 00:44:25;;;;;;;3.42;1.25;;;21.30;70.60;;;;;;6164372;23;20001;-73
2021/11/20 00:46:51;;;;;;;2.25;1.27;;;21.30;70.70;;;;;;6189268;23;20432;-73
2021/11/20 00:49:17;;;;;;;2.60;1.00;;;21.30;71.70;;;;;;6189200;23;20424;-72
2021/11/20 00:51:43;;;;;;;1.67;1.08;;;21.30;70.60;;;;;;6164691;23;20101;-72
2021/11/20 00:54:09;;;;;;;1.10;1.00;;;21.30;70.70;;;;;;6189148;23;20419;-73
2021/11/20 00:56:35;;;;;;;4.55;1.10;;;21.30;70.60;;;;;;6215635;23;20011;-73
2021/11/20 00:59:00;;;;;;;2.42;1.25;;;21.30;70.70;;;;;;6189603;23;20004;-73
2021/11/20 01:01:29;;;;;;;1.85;1.20;;;21.30;70.70;;;;;;6164485;23;20004;-73
2021/11/20 01:03:55;;;;;;;1.45;1.08;;;21.30;70.70;;;;;;6165069;23;20001;-73
2021/11/20 01:06:21;;;;;;;1.25;1.00;;;21.30;70.70;;;;;;6189166;23;19996;-73
2021/11/20 01:08:48;;;;;;;1.98;1.00;;;21.30;70.70;;;;;;6188770;23;20008;-73
2021/11/20 01:11:32;;;;;;;1.92;1.20;;;21.30;70.70;;;;;;6189537;23;20451;-73
2021/11/20 01:14:00;;;;;;;1.90;1.20;;;21.30;70.60;;;;;;6189244;23;20344;-73
2021/11/20 01:16:26;;;;;;;1.33;0.98;;;21.30;70.80;;;;;;6189128;23;20008;-73
2021/11/20 01:18:52;;;;;;;0.88;0.88;;;21.30;70.70;;;;;;6189114;23;20084;-73
2021/11/20 01:21:18;;;;;;;1.67;1.00;;;21.30;70.80;;;;;;6139518;23;20039;-73
2021/11/20 01:23:43;;;;;;;2.50;1.05;;;21.30;70.70;;;;;;6163744;23;20054;-73
2021/11/20 01:26:10;;;;;;;1.55;1.15;;;21.30;70.70;;;;;;6189133;23;20013;-73
2021/11/20 01:28:37;;;;;;;1.85;1.20;;;21.30;70.70;;;;;;6164405;23;20005;-73
2021/11/20 01:31:04;;;;;;;2.13;1.23;;;21.30;70.70;;;;;;6188792;23;20004;-73
2021/11/20 01:33:30;;;;;;;2.95;1.10;;;21.30;70.70;;;;;;6189168;23;20127;-73
2021/11/20 01:35:56;;;;;;;3.38;1.15;;;21.30;70.70;;;;;;6189208;23;20015;-73
2021/11/20 01:38:21;;;;;;;1.60;1.02;;;21.40;70.70;;;;;;6188707;23;20008;-73
2021/11/20 01:40:47;;;;;;;4.05;1.30;;;21.30;70.70;;;;;;6215313;23;20028;-73
2021/11/20 01:43:13;;;;;;;1.95;1.20;;;21.30;70.60;;;;;;6215442;23;20436;-73
2021/11/20 01:46:17;;;;;;;1.25;1.00;;;21.30;70.70;;;;;;6188791;23;20001;-73
2021/11/20 01:48:43;;;;;;;2.15;1.15;;;21.40;70.70;;;;;;6168410;23;20507;-73
2021/11/20 01:51:11;;;;;;;1.40;1.15;;;21.30;70.70;;;;;;6215268;23;20028;-72
2021/11/20 01:54:12;;;;;;;4.20;1.38;;;21.30;70.70;;;;;;6188018;23;20004;-73
2021/11/20 01:56:55;;;;;;;1.52;1.00;;;21.40;70.70;;;;;;6215190;23;20001;-72
2021/11/20 01:59:30;;;;;;;0.88;0.82;;;21.30;70.70;;;;;;6215331;23;20506;-72
2021/11/20 02:02:21;;;;;;;2.45;1.30;;;21.30;70.80;;;;;;6189135;23;20507;-73
2021/11/20 02:05:13;;;;;;;2.38;1.30;;;21.30;70.70;;;;;;6191373;23;19997;-73
2021/11/20 02:07:52;;;;;;;1.77;1.20;;;21.30;70.70;;;;;;6188339;23;20000;-73
2021/11/20 02:10:31;;;;;;;1.42;1.30;;;21.30;70.80;;;;;;6188646;23;20414;-72
2021/11/20 02:12:59;;;;;;;2.58;1.13;;;21.30;70.70;;;;;;6164687;23;20075;-72
2021/11/20 02:15:40;;;;;;;2.88;1.30;;;21.30;70.80;;;;;;6164656;23;20012;-73
2021/11/20 02:18:06;;;;;;;2.10;1.15;;;21.30;70.80;;;;;;6167159;23;20001;-72
2021/11/20 02:21:13;;;;;;;2.42;1.23;;;21.30;70.80;;;;;;6187964;23;20011;-72
2021/11/20 02:23:38;;;;;;;1.52;1.10;;;21.30;70.60;;;;;;6214098;23;20420;-72
2021/11/20 02:26:04;;;;;;;2.42;1.60;;;21.30;70.90;;;;;;6214508;23;20035;-72
2021/11/20 02:28:30;;;;;;;1.45;1.10;;;21.30;70.90;;;;;;6215018;23;20031;-73
2021/11/20 02:30:56;;;;;;;2.15;1.30;;;21.30;70.90;;;;;;6163591;23;20059;-73
2021/11/20 02:33:27;;;;;;;1.17;1.05;;;21.30;70.80;;;;;;6188695;23;20005;-73
2021/11/20 02:35:58;;;;;;;3.60;1.38;;;21.30;70.80;;;;;;6164194;23;20075;-73
2021/11/20 02:38:29;;;;;;;1.88;1.23;;;21.30;70.80;;;;;;6188494;23;20015;-73
2021/11/20 02:40:55;;;;;;;2.00;1.20;;;21.30;70.80;;;;;;6187968;23;20432;-73
2021/11/20 02:43:21;;;;;;;1.65;1.10;;;21.30;70.80;;;;;;6188640;23;20000;-72
2021/11/20 02:45:49;;;;;;;2.38;1.25;;;21.30;70.70;;;;;;6188549;23;20005;-72
2021/11/20 02:48:15;;;;;;;1.98;1.30;;;21.30;70.70;;;;;;6188313;23;20071;-72
2021/11/20 02:50:50;;;;;;;1.67;1.30;;;21.30;70.70;;;;;;6187913;23;20474;-72
2021/11/20 02:53:36;;;;;;;3.17;1.63;;;21.30;70.70;;;;;;6190279;23;20005;-73
2021/11/20 02:56:02;;;;;;;1.55;1.10;;;21.30;70.70;;;;;;6167167;23;20425;-73
2021/11/20 02:58:28;;;;;;;3.30;1.17;;;21.30;70.80;;;;;;6163203;23;20016;-73
2021/11/20 03:00:59;;;;;;;2.00;1.50;;;21.30;70.70;;;;;;6214695;23;20012;-73
2021/11/20 03:03:25;;;;;;;3.28;1.48;;;21.30;70.70;;;;;;6163885;23;20028;-73
2021/11/20 03:05:50;;;;;;;2.28;1.33;;;21.30;70.70;;;;;;6187731;23;20011;-73
2021/11/20 03:08:16;;;;;;;1.63;1.17;;;21.30;70.70;;;;;;6163500;23;20004;-73
2021/11/20 03:10:42;;;;;;;1.35;1.10;;;21.30;70.70;;;;;;6214471;23;20510;-73
2021/11/20 03:13:08;;;;;;;1.50;1.13;;;21.40;70.80;;;;;;6163164;23;20005;-73
2021/11/20 03:15:33;;;;;;;2.25;1.40;;;21.40;70.80;;;;;;6187776;23;20471;-73
2021/11/20 03:17:59;;;;;;;2.55;1.13;;;21.30;70.60;;;;;;6187915;23;20001;-72
2021/11/20 03:20:24;;;;;;;1.38;1.10;;;21.30;70.70;;;;;;6214068;23;20016;-72
2021/11/20 03:22:57;;;;;;;2.88;1.50;;;21.30;70.60;;;;;;6187736;23;20464;-72
2021/11/20 03:25:23;;;;;;;1.80;1.10;;;21.30;70.60;;;;;;6214625;23;20004;-72
2021/11/20 03:27:49;;;;;;;2.17;1.40;;;21.30;70.60;;;;;;6187747;23;20016;-72
2021/11/20 03:30:14;;;;;;;1.73;1.20;;;21.30;70.60;;;;;;6214482;23;20005;-72
2021/11/20 03:32:41;;;;;;;2.15;1.40;;;21.30;70.60;;;;;;6188439;23;20031;-72
2021/11/20 03:35:07;;;;;;;1.75;1.27;;;21.30;70.60;;;;;;6162648;23;20008;-72
2021/11/20 03:37:33;;;;;;;1.75;1.40;;;21.30;70.60;;;;;;6214369;23;20009;-72
2021/11/20 03:39:59;;;;;;;2.97;1.30;;;21.30;70.60;;;;;;6187717;23;20028;-72
2021/11/20 03:42:24;;;;;;;1.65;1.23;;;21.30;70.60;;;;;;6187997;23;20032;-73
2021/11/20 03:44:50;;;;;;;1.67;1.13;;;21.30;70.60;;;;;;6214227;23;20432;-73
2021/11/20 03:47:16;;;;;;;1.27;1.17;;;21.30;70.60;;;;;;6163305;23;20462;-72
2021/11/20 03:49:42;;;;;;;2.83;1.50;;;21.30;70.60;;;;;;6187446;23;20031;-72
2021/11/20 03:52:08;;;;;;;1.55;1.40;;;21.30;71.60;;;;;;6163596;23;20075;-72
2021/11/20 03:54:34;;;;;;;1.42;1.30;;;21.30;70.60;;;;;;6164317;23;20364;-72
2021/11/20 03:56:59;;;;;;;1.42;1.23;;;21.30;70.60;;;;;;6216163;23;20020;-72
2021/11/20 03:59:25;;;;;;;2.13;1.50;;;21.30;70.60;;;;;;6189181;23;19996;-72
2021/11/20 04:01:51;;;;;;;3.10;1.23;;;21.30;70.60;;;;;;6215392;23;20005;-72
2021/11/20 04:04:17;;;;;;;2.88;1.30;;;21.30;70.60;;;;;;6189532;23;20028;-72
2021/11/20 04:06:42;;;;;;;2.53;1.30;;;21.20;70.60;;;;;;6165272;23;20028;-72
2021/11/20 04:09:12;;;;;;;1.85;1.55;;;21.20;70.50;;;;;;6216226;23;20062;-72
2021/11/20 04:11:39;;;;;;;1.40;1.30;;;21.20;70.50;;;;;;6190621;23;20004;-72
2021/11/20 04:14:05;;;;;;;1.85;1.58;;;21.30;70.60;;;;;;6189778;23;20001;-72
2021/11/20 04:16:32;;;;;;;1.80;1.15;;;21.20;70.60;;;;;;6215940;23;20011;-72
2021/11/20 04:18:57;;;;;;;1.35;1.25;;;21.20;70.50;;;;;;6189311;23;20471;-73
2021/11/20 04:21:24;;;;;;;2.28;1.27;;;21.20;70.60;;;;;;6165090;23;20002;-72
2021/11/20 04:23:49;;;;;;;1.70;1.25;;;21.20;70.60;;;;;;6163530;23;19997;-72
2021/11/20 04:26:17;;;;;;;4.03;1.42;;;21.20;70.60;;;;;;6188796;23;20013;-72
2021/11/20 04:28:42;;;;;;;2.15;1.38;;;21.20;70.50;;;;;;6164283;23;20011;-72
2021/11/20 04:31:08;;;;;;;2.42;1.40;;;21.30;70.60;;;;;;6215808;23;20004;-72
2021/11/20 04:33:34;;;;;;;1.42;1.15;;;21.20;70.60;;;;;;6189433;23;20011;-72
2021/11/20 04:35:59;;;;;;;2.75;1.60;;;21.20;70.50;;;;;;6189590;23;20005;-72
2021/11/20 04:38:25;;;;;;;1.50;1.40;;;21.20;70.60;;;;;;6216108;23;20058;-72
2021/11/20 04:40:51;;;;;;;1.40;1.30;;;21.20;70.60;;;;;;6215815;23;20008;-72
2021/11/20 04:43:16;;;;;;;2.47;1.50;;;21.20;70.50;;;;;;6215990;23;19997;-72
2021/11/20 04:45:42;;;;;;;1.58;1.23;;;21.20;70.50;;;;;;6164368;23;20562;-72
2021/11/20 04:48:08;;;;;;;2.35;1.25;;;21.20;70.50;;;;;;6189485;23;20309;-72
2021/11/20 04:50:34;;;;;;;1.98;1.58;;;21.20;70.50;;;;;;6189624;23;20452;-72
2021/11/20 04:53:00;;;;;;;1.55;1.20;;;21.20;70.60;;;;;;6164492;23;20080;-72
2021/11/20 04:55:26;;;;;;;1.80;1.50;;;21.20;70.60;;;;;;6215408;23;20005;-72
2021/11/20 04:57:51;;;;;;;1.67;1.55;;;21.20;70.50;;;;;;6188030;23;20005;-72
2021/11/20 05:00:23;;;;;;;2.20;1.42;;;21.20;70.60;;;;;;6214441;23;20000;-72
2021/11/20 05:02:49;;;;;;;1.63;1.40;;;21.20;70.50;;;;;;6165011;23;20007;-72
2021/11/20 05:05:15;;;;;;;3.05;1.58;;;21.20;70.50;;;;;;6163951;23;20395;-72
2021/11/20 05:07:41;;;;;;;2.03;1.40;;;21.20;70.60;;;;;;6164024;23;20066;-72
2021/11/20 05:10:07;;;;;;;1.80;1.30;;;21.20;70.50;;;;;;6215286;23;20004;-72
2021/11/20 05:12:33;;;;;;;1.50;0.95;;;21.20;70.60;;;;;;6164498;23;20012;-72
2021/11/20 05:14:58;;;;;;;2.25;1.27;;;21.20;70.60;;;;;;6188573;23;20467;-72
2021/11/20 05:17:24;;;;;;;1.83;1.25;;;21.20;70.60;;;;;;6215882;23;20090;-72
2021/11/20 05:19:50;;;;;;;1.60;1.20;;;21.20;70.60;;;;;;6189121;23;20005;-72
2021/11/20 05:22:16;;;;;;;1.02;1.00;;;21.20;70.60;;;;;;6189103;23;20028;-73
2021/11/20 05:24:41;;;;;;;2.72;1.63;;;21.20;70.60;;;;;;6215565;23;20001;-73
2021/11/20 05:27:08;;;;;;;2.17;1.52;;;21.20;70.60;;;;;;6215299;23;20479;-72
2021/11/20 05:32:35;;;;;;;2.63;1.30;;;21.10;70.50;;;;;;6135888;23;20449;-72
2021/11/20 05:35:01;;;;;;;1.65;1.45;;;21.20;70.60;;;;;;6152778;23;20008;-72
2021/11/20 05:37:26;;;;;;;1.73;1.40;;;21.10;70.60;;;;;;6153352;23;20444;-72
2021/11/20 05:39:52;;;;;;;3.42;1.48;;;21.10;70.50;;;;;;6128309;23;20001;-72
2021/11/20 05:42:18;;;;;;;1.83;1.60;;;21.10;70.50;;;;;;6152569;23;20512;-72
2021/11/20 05:44:44;;;;;;;2.70;1.67;;;21.20;70.50;;;;;;6151566;23;20182;-72
2021/11/20 05:47:09;;;;;;;1.55;1.25;;;21.20;70.50;;;;;;6151116;23;20037;-73
2021/11/20 05:49:37;;;;;;;2.53;1.58;;;21.10;70.50;;;;;;6152013;23;20033;-72
2021/11/20 05:52:03;;;;;;;1.58;1.42;;;21.20;70.50;;;;;;6151893;23;20038;-73
2021/11/20 05:54:29;;;;;;;3.15;1.40;;;21.10;70.50;;;;;;6151606;23;20478;-72
2021/11/20 05:56:54;;;;;;;2.75;1.35;;;21.10;70.50;;;;;;6151716;23;20101;-73
2021/11/20 05:59:20;;;;;;;1.48;1.27;;;21.20;70.50;;;;;;6126866;23;20075;-72
2021/11/20 06:01:46;;;;;;;3.13;1.40;;;21.10;70.50;;;;;;6151054;23;20005;-72
2021/11/20 06:04:13;;;;;;;1.40;1.30;;;21.10;70.50;;;;;;6150771;23;20081;-72
2021/11/20 06:06:38;;;;;;;2.03;1.40;;;21.20;70.50;;;;;;6184472;23;20409;-72
2021/11/20 06:09:04;;;;;;;3.03;1.45;;;21.10;70.50;;;;;;6162715;23;19997;-72
2021/11/20 06:11:30;;;;;;;1.63;1.20;;;21.20;70.50;;;;;;6215398;23;20008;-72
2021/11/20 06:13:55;;;;;;;1.60;1.50;;;21.20;70.50;;;;;;6188865;23;20007;-72
2021/11/20 06:16:21;;;;;;;2.78;1.33;;;21.20;70.50;;;;;;6215268;23;20004;-72
2021/11/20 06:18:47;;;;;;;2.20;1.40;;;21.10;70.50;;;;;;6189348;23;20004;-72
2021/11/20 06:21:12;;;;;;;1.67;1.35;;;21.20;70.50;;;;;;6215016;23;20075;-72
2021/11/20 06:23:39;;;;;;;1.65;1.40;;;21.20;70.50;;;;;;6189013;23;20396;-73
2021/11/20 06:26:06;;;;;;;1.52;1.20;;;21.20;70.50;;;;;;6188883;23;20021;-72
2021/11/20 06:28:31;;;;;;;1.48;1.38;;;21.10;70.40;;;;;;6188651;23;20050;-72
2021/11/20 06:30:58;;;;;;;1.67;1.40;;;21.10;70.40;;;;;;6188833;23;20012;-72
2021/11/20 06:33:24;;;;;;;1.73;1.27;;;21.20;70.40;;;;;;6189335;23;20008;-72
2021/11/20 06:35:50;;;;;;;1.83;1.23;;;21.20;70.50;;;;;;6164130;23;20419;-72
2021/11/20 06:38:16;;;;;;;1.85;1.35;;;21.20;70.50;;;;;;6215255;23;20035;-72
2021/11/20 06:40:46;;;;;;;3.22;1.40;;;21.20;70.50;;;;;;6215350;23;20005;-72
2021/11/20 06:43:13;;;;;;;2.10;1.40;;;21.20;70.50;;;;;;6163960;23;20007;-72
2021/11/20 06:45:41;;;;;;;6.07;1.48;;;21.20;70.40;;;;;;6164806;23;20429;-72
2021/11/20 06:48:07;;;;;;;2.65;1.55;;;21.20;70.40;;;;;;6164099;23;20047;-72
2021/11/20 06:50:34;;;;;;;1.30;1.20;;;21.20;70.40;;;;;;6164105;23;20008;-72
2021/11/20 06:53:02;;;;;;;1.83;1.30;;;21.20;70.40;;;;;;6188676;23;20551;-72
2021/11/20 06:55:30;;;;;;;1.98;1.30;;;21.20;70.40;;;;;;6164254;23;20079;-72
2021/11/20 06:57:58;;;;;;;2.03;1.30;;;21.10;70.40;;;;;;6214710;23;20031;-72
2021/11/20 07:00:26;;;;;;;2.30;1.50;;;21.10;70.30;;;;;;6188453;23;20084;-72
2021/11/20 07:03:13;;;;;;;1.45;1.25;;;21.20;70.40;;;;;;6188498;23;20440;-72
2021/11/20 07:05:47;;;;;;;1.48;1.38;;;21.20;70.20;;;;;;6168650;23;20468;-72
2021/11/20 07:08:12;;;;;;;2.60;1.48;;;21.10;70.30;;;;;;6214388;23;20459;-72
2021/11/20 07:10:38;;;;;;;3.05;1.33;;;21.10;70.30;;;;;;6187702;23;20005;-72
2021/11/20 07:13:04;;;;;;;5.80;1.52;;;21.10;70.30;;;;;;6163247;23;20007;-72
2021/11/20 07:15:29;;;;;;;2.28;1.60;;;21.20;70.40;;;;;;6214519;23;20004;-72
2021/11/20 07:17:55;;;;;;;2.20;1.25;;;21.20;70.40;;;;;;6214521;23;20023;-72
2021/11/20 07:20:24;;;;;;;5.68;1.75;;;21.10;70.40;;;;;;6162673;23;20011;-72
2021/11/20 07:22:49;;;;;;;2.67;1.40;;;21.10;70.30;;;;;;6163836;23;20031;-72
2021/11/20 07:25:16;;;;;;;1.55;1.35;;;21.10;70.30;;;;;;6214261;23;20000;-72
2021/11/20 07:27:41;;;;;;;2.33;1.33;;;21.10;70.30;;;;;;6214661;23;20015;-72
2021/11/20 07:30:08;;;;;;;3.03;1.38;;;21.10;70.30;;;;;;6188234;23;20005;-72
2021/11/20 07:32:33;;;;;;;2.13;1.70;;;21.20;70.40;;;;;;6163495;23;20005;-72
2021/11/20 07:34:59;;;;;;;1.25;1.15;;;21.10;70.30;;;;;;6188305;23;20031;-72
2021/11/20 07:37:25;;;;;;;2.63;1.48;;;21.20;70.40;;;;;;6188317;23;20050;-72
2021/11/20 07:39:51;;;;;;;1.75;1.30;;;21.20;70.40;;;;;;6187934;23;20428;-72
2021/11/20 07:42:16;;;;;;;1.73;1.38;;;21.10;70.30;;;;;;6163493;23;20071;-72
2021/11/20 07:44:42;;;;;;;2.20;1.42;;;21.20;70.40;;;;;;6188527;23;20005;-72
2021/11/20 07:47:08;;;;;;;2.95;1.48;;;21.10;70.30;;;;;;6162886;23;20571;-72
2021/11/20 07:49:33;;;;;;;4.03;1.45;;;21.20;70.40;;;;;;6187689;23;20447;-72
2021/11/20 07:51:59;;;;;;;2.38;1.40;;;21.10;70.30;;;;;;6187971;23;20074;-72
2021/11/20 07:54:25;;;;;;;2.10;1.48;;;21.10;70.30;;;;;;6187350;23;20035;-72
2021/11/20 07:56:50;;;;;;;3.30;1.73;;;21.10;70.30;;;;;;6214398;23;20491;-72
2021/11/20 07:59:16;;;;;;;3.75;1.52;;;21.10;70.30;;;;;;6214115;23;20010;-72
2021/11/20 08:01:43;;;;;;;1.80;1.27;;;21.10;70.30;;;;;;6163122;23;20072;-72
2021/11/20 08:04:08;;;;;;;1.65;1.23;;;21.10;70.30;;;;;;6187862;23;20064;-72
2021/11/20 08:06:34;;;;;;;2.50;1.40;;;21.10;70.30;;;;;;6187691;23;20486;-72
2021/11/20 08:09:03;;;;;;;2.03;1.35;;;21.10;70.30;;;;;;6213750;23;20023;-72
2021/11/20 08:11:33;;;;;;;3.05;1.30;;;21.10;70.30;;;;;;6187752;23;20004;-72
2021/11/20 08:13:58;;;;;;;4.15;1.40;;;21.10;70.30;;;;;;6188121;23;20008;-72
2021/11/20 08:16:25;;;;;;;3.05;1.40;;;21.10;70.30;;;;;;6187777;23;20458;-71
2021/11/20 08:18:50;;;;;;;2.88;1.40;;;21.10;70.30;;;;;;6214466;23;20001;-72
2021/11/20 08:21:16;;;;;;;1.33;1.17;;;21.10;70.30;;;;;;6187115;23;20032;-72
2021/11/20 08:23:42;;;;;;;3.30;1.55;;;21.10;70.30;;;;;;6187201;23;20092;-72
2021/11/20 08:26:08;;;;;;;1.60;1.38;;;21.10;70.30;;;;;;6213862;23;20020;-72
2021/11/20 08:28:34;;;;;;;2.33;1.38;;;21.10;70.30;;;;;;6162966;23;20032;-71
2021/11/20 08:30:59;;;;;;;1.55;1.45;;;21.10;70.30;;;;;;6214171;23;20005;-72
2021/11/20 08:33:25;;;;;;;2.22;1.77;;;21.10;70.30;;;;;;6214308;23;20344;-72
2021/11/20 08:35:51;;;;;;;4.03;1.50;;;21.10;70.30;;;;;;6187742;23;20075;-72
2021/11/20 08:38:17;;;;;;;3.45;1.52;;;21.10;70.30;;;;;;6187316;23;20399;-72
2021/11/20 08:40:44;;;;;;;2.95;1.58;;;21.10;70.20;;;;;;6189201;23;20005;-72
2021/11/20 08:43:10;;;;;;;1.65;1.50;;;21.10;70.30;;;;;;6165283;23;19996;-72
2021/11/20 08:45:39;;;;;;;2.15;1.52;;;21.10;70.30;;;;;;6215925;23;20007;-72
2021/11/20 08:48:05;;;;;;;1.70;1.42;;;21.10;70.30;;;;;;6190066;23;20043;-72
2021/11/20 08:50:33;;;;;;;3.13;1.73;;;21.10;70.30;;;;;;6215658;23;20459;-72
2021/11/20 08:52:59;;;;;;;5.65;1.48;;;21.10;70.30;;;;;;6215103;23;20004;-72
2021/11/20 08:55:25;;;;;;;2.17;1.33;;;21.10;70.30;;;;;;6163973;23;20004;-72
2021/11/20 08:57:51;;;;;;;2.53;1.10;;;21.10;70.60;;;;;;6215863;23;20055;-72
2021/11/20 09:00:29;;;;;;;1.92;1.50;;;21.10;71.30;;;;;;6215757;23;20012;-72
2021/11/20 09:03:03;;;;;;;2.58;1.30;;;21.10;70.30;;;;;;6189470;23;20001;-72
2021/11/20 09:05:40;;;;;;;2.17;1.40;;;21.10;70.30;;;;;;6190567;23;20000;-72
2021/11/20 09:08:10;;;;;;;1.67;1.42;;;21.10;70.30;;;;;;6165600;23;20139;-72
2021/11/20 09:10:50;;;;;;;1.20;1.08;;;21.10;70.30;;;;;;6165436;23;20007;-72
2021/11/20 09:13:24;;;;;;;2.15;1.50;;;21.10;70.30;;;;;;6189699;23;20020;-72
2021/11/20 09:15:56;;;;;;;3.10;1.40;;;21.10;70.30;;;;;;6190743;23;20011;-71
2021/11/20 09:18:23;;;;;;;2.67;1.60;;;21.10;70.30;;;;;;6190101;23;20055;-71
2021/11/20 09:20:52;;;;;;;2.10;1.80;;;21.10;70.20;;;;;;6215916;23;20005;-71
2021/11/20 09:23:18;;;;;;;5.10;1.70;;;21.10;70.10;;;;;;6190078;23;19997;-70
2021/11/20 09:25:44;;;;;;;2.92;1.90;;;21.10;70.00;;;;;;6189391;23;19997;-70
2021/11/20 09:28:10;;;;;;;2.55;1.80;;;21.00;69.80;;;;;;6189715;23;20016;-70
2021/11/20 09:30:39;;;;;;;2.53;1.98;;;21.00;69.80;;;;;;6164758;23;20032;-70
2021/11/20 09:33:04;;;;;;;3.03;2.10;;;21.00;69.80;;;;;;6163841;23;20008;-74
2021/11/20 09:35:30;;;;;;;2.63;1.90;;;20.90;69.70;;;;;;6215289;23;20084;-74
2021/11/20 09:37:55;;;;;;;4.07;2.33;;;20.90;69.70;;;;;;6215836;23;20055;-74
2021/11/20 09:40:22;;;;;;;2.92;2.13;;;20.90;69.50;;;;;;6189288;23;20001;-74
2021/11/20 09:42:50;;;;;;;2.35;2.03;;;20.90;69.50;;;;;;6164723;23;20036;-74
2021/11/20 09:45:24;;;;;;;2.90;2.50;;;20.90;69.60;;;;;;6189642;23;20024;-73
2021/11/20 09:47:55;;;;;;;2.92;2.40;;;20.90;69.60;;;;;;6165197;23;20391;-73
2021/11/20 09:50:29;;;;;;;3.78;2.15;;;20.90;69.50;;;;;;6164870;23;20464;-73
2021/11/20 09:52:55;;;;;;;2.83;2.30;;;21.00;69.50;;;;;;6189000;23;20076;-74
2021/11/20 09:55:27;;;;;;;2.72;2.30;;;21.00;69.50;;;;;;6189564;23;20035;-74
2021/11/20 09:58:02;;;;;;;3.20;2.47;;;21.00;69.40;;;;;;6165323;23;20008;-74
2021/11/20 10:00:46;;;;;;;2.30;1.90;;;21.00;69.20;;;;;;6189366;23;20415;-74
2021/11/20 10:03:33;;;;;;;3.00;2.05;;;21.00;69.10;;;;;;6215778;23;20119;-74
2021/11/20 10:06:10;;;;;;;2.40;2.20;;;21.00;69.20;;;;;;6192699;23;20454;-74
2021/11/20 10:08:39;;;;;;;2.20;2.00;;;21.10;69.00;;;;;;6164287;23;20001;-74
2021/11/20 10:11:07;;;;;;;3.80;2.08;;;21.00;69.10;;;;;;6189674;23;20012;-74
2021/11/20 10:13:47;;;;;;;3.65;2.40;;;21.10;68.90;;;;;;6215465;23;20004;-74
2021/11/20 10:16:18;;;;;;;3.47;2.15;;;21.10;68.80;;;;;;6192354;23;20038;-73
2021/11/20 10:18:58;;;;;;;4.35;2.38;;;21.10;68.60;;;;;;6165265;23;20032;-73
2021/11/20 10:21:33;;;;;;;3.53;2.30;;;21.10;68.60;;;;;;6188887;23;20071;-74
2021/11/20 10:24:21;;;;;;;3.42;2.20;;;21.10;68.60;;;;;;6188692;23;19997;-74
2021/11/20 10:27:01;;;;;;;3.53;2.30;;;21.10;68.30;;;;;;6187506;23;20393;-75
2021/11/20 10:29:52;;;;;;;2.50;2.30;;;21.10;68.30;;;;;;6214926;23;20032;-74
2021/11/20 10:32:41;;;;;;;3.05;2.40;;;21.10;68.40;;;;;;6214807;23;20309;-73
2021/11/20 10:35:28;;;;;;;2.35;2.15;;;21.20;68.00;;;;;;6188518;23;20071;-73
2021/11/20 10:38:19;;;;;;;2.63;2.25;;;21.20;68.00;;;;;;6214490;23;20000;-73
2021/11/20 10:40:45;;;;;;;2.30;2.10;;;21.20;67.80;;;;;;6189178;23;20005;-73
2021/11/20 10:43:24;;;;;;;2.47;2.28;;;21.10;68.10;;;;;;6214633;23;20383;-73
2021/11/20 10:46:14;;;;;;;2.92;2.10;;;21.20;68.00;;;;;;6188261;23;20004;-73
2021/11/20 10:48:49;;;;;;;3.05;2.17;;;21.20;68.00;;;;;;6191454;23;20071;-73
2021/11/20 10:51:33;;;;;;;5.72;2.20;;;21.20;68.00;;;;;;6189093;23;20012;-73
2021/11/20 10:54:17;;;;;;;3.85;2.70;;;21.30;67.70;;;;;;6188246;23;20012;-74
2021/11/20 10:57:07;;;;;;;2.75;2.13;;;21.30;67.50;;;;;;6214264;23;20004;-74
2021/11/20 10:59:57;;;;;;;6.60;2.42;;;21.30;68.20;;;;;;6188808;23;20083;-74
2021/11/20 11:02:44;;;;;;;2.50;2.30;;;21.30;67.70;;;;;;6214443;23;20028;-74
2021/11/20 11:05:37;;;;;;;3.38;2.22;;;21.30;67.30;;;;;;6214486;23;19997;-73
2021/11/20 11:08:37;;;;;;;2.45;1.90;;;21.30;68.20;;;;;;6187786;23;20001;-73
2021/11/20 11:11:07;;;;;;;3.00;1.88;;;21.30;67.10;;;;;;6213847;23;20011;-72
2021/11/20 11:14:00;;;;;;;2.60;2.13;;;21.30;67.30;;;;;;6163907;23;20005;-72
2021/11/20 11:16:41;;;;;;;3.25;2.10;;;21.30;67.10;;;;;;6214513;23;20018;-72
2021/11/20 11:19:28;;;;;;;3.53;2.22;;;21.30;66.90;;;;;;6163633;23;20459;-72
2021/11/20 11:22:01;;;;;;;2.70;2.45;;;21.40;66.80;;;;;;6214723;23;20008;-72
2021/11/20 11:25:04;;;;;;;3.38;2.45;;;21.30;66.90;;;;;;6164735;23;20071;-72
2021/11/20 11:27:50;;;;;;;2.88;2.25;;;21.40;66.70;;;;;;6214601;23;20012;-72
2021/11/20 11:30:43;;;;;;;2.38;2.08;;;21.40;67.00;;;;;;6192584;23;20000;-72
2021/11/20 11:33:09;;;;;;;3.67;2.25;;;21.40;66.50;;;;;;6187682;23;20329;-73
2021/11/20 11:35:56;;;;;;;3.10;1.90;;;21.40;66.80;;;;;;6215107;23;20000;-73
2021/11/20 11:38:59;;;;;;;3.17;2.33;;;21.40;66.60;;;;;;6166011;23;20001;-73
2021/11/20 11:41:47;;;;;;;2.20;2.00;;;21.40;66.30;;;;;;6214856;23;20320;-73
2021/11/20 11:44:31;;;;;;;2.15;1.95;;;21.40;66.40;;;;;;6165116;23;19996;-74
2021/11/20 11:47:15;;;;;;;2.20;2.00;;;21.40;66.30;;;;;;6188798;23;20444;-74
2021/11/20 11:49:50;;;;;;;2.35;1.98;;;21.40;66.70;;;;;;6214795;23;20003;-75
2021/11/20 11:52:16;;;;;;;4.10;2.33;;;21.40;66.50;;;;;;6188296;23;20009;-75
2021/11/20 11:54:46;;;;;;;3.08;2.22;;;21.50;66.40;;;;;;6215035;23;20004;-75
2021/11/20 11:57:12;;;;;;;2.58;2.25;;;21.50;66.20;;;;;;6188026;23;20008;-75
2021/11/20 11:59:38;;;;;;;1.92;1.75;;;21.50;66.40;;;;;;6214755;23;20005;-76
2021/11/20 12:02:16;;;;;;;4.15;2.03;;;21.50;66.30;;;;;;6214245;23;20009;-75
2021/11/20 12:04:47;;;;;;;2.50;2.30;;;21.50;66.00;;;;;;6189148;23;20001;-75
2021/11/20 12:07:51;;;;;;;2.78;2.10;;;21.50;66.20;;;;;;6189458;23;20531;-76
2021/11/20 12:10:22;;;;;;;2.35;2.10;;;21.60;65.80;;;;;;6214801;23;20001;-76
2021/11/20 12:13:28;;;;;;;3.13;2.15;;;21.50;65.90;;;;;;6214825;23;20016;-75
2021/11/20 12:16:05;;;;;;;2.20;1.98;;;21.60;65.70;;;;;;6172471;23;20004;-75
2021/11/20 12:18:46;;;;;;;2.85;2.20;;;21.60;65.90;;;;;;6190211;23;20011;-75
2021/11/20 12:21:38;;;;;;;2.85;1.90;;;21.60;65.80;;;;;;6216421;23;20004;-75
2021/11/20 12:24:33;;;;;;;3.38;2.17;;;21.60;65.80;;;;;;6216568;23;20012;-75
2021/11/20 12:27:06;;;;;;;3.13;1.92;;;21.60;65.80;;;;;;6216299;23;20466;-75
2021/11/20 12:30:11;;;;;;;2.00;1.75;;;21.60;65.80;;;;;;6189832;23;19996;-77
2021/11/20 12:33:13;;;;;;;2.45;2.03;;;21.60;65.50;;;;;;6216011;23;20004;-75
2021/11/20 12:36:19;;;;;;;2.25;2.05;;;21.60;65.40;;;;;;6216261;23;20004;-77
2021/11/20 12:39:10;;;;;;;2.15;1.95;;;21.60;65.50;;;;;;6214776;23;20024;-73
2021/11/20 12:41:57;;;;;;;1.88;1.73;;;21.60;65.70;;;;;;6188362;23;20380;-75
2021/11/20 12:44:44;;;;;;;2.78;1.90;;;21.60;65.60;;;;;;6215287;23;20008;-76
2021/11/20 12:47:37;;;;;;;2.85;2.35;;;21.60;65.60;;;;;;6188242;23;20005;-75
2021/11/20 12:50:33;;;;;;;2.17;1.98;;;21.60;65.50;;;;;;6192719;23;20055;-73
2021/11/20 12:53:21;;;;;;;3.03;1.95;;;21.60;65.20;;;;;;6216085;23;20060;-74
2021/11/20 12:56:05;;;;;;;1.90;1.80;;;21.60;65.70;;;;;;6192470;23;20001;-73
2021/11/20 12:58:34;;;;;;;2.55;1.80;;;21.70;65.30;;;;;;6215156;23;19996;-72
2021/11/20 13:01:00;;;;;;;3.05;2.15;;;21.60;65.50;;;;;;6188844;23;20001;-73
2021/11/20 13:03:34;;;;;;;2.65;2.05;;;21.70;65.50;;;;;;6188749;23;19997;-73
2021/11/20 13:06:02;;;;;;;2.20;1.85;;;21.70;65.50;;;;;;6189270;23;20047;-72
2021/11/20 13:08:31;;;;;;;2.75;2.17;;;21.70;65.50;;;;;;6164119;23;20005;-73
2021/11/20 13:11:12;;;;;;;2.20;1.73;;;21.70;65.30;;;;;;6189511;23;20007;-73
2021/11/20 13:14:04;;;;;;;1.85;1.73;;;21.80;65.10;;;;;;6214653;23;20009;-73